sensor_id;sensor_type;location;lat;lon;timestamp;temperature;humidity
10692;DHT22;5396;50.950;6.988;2023-03-11T00:00:33;2.00;99.90
10692;DHT22;5396;50.950;6.988;2023-03-11T00:03:00;2.00;99.90
10692;DHT22;5396;50.950;6.988;2023-03-11T00:05:29;2.00;99.90
10692;DHT22;5396;50.950;6.988;2023-03-11T00:07:56;2.00;99.90
10692;DHT22;5396;50.950;6.988;2023-03-11T00:10:25;2.00;99.90
10692;DHT22;5396;50.950;6.988;2023-03-11T00:12:51;2.00;99.90
10692;DHT22;5396;50.950;6.988;2023-03-11T00:15:17;2.10;99.90
10692;DHT22;5396;50.950;6.988;2023-03-11T00:17:43;2.10;99.90
10692;DHT22;5396;50.950;6.988;2023-03-11T00:20:24;2.00;99.90
10692;DHT22;5396;50.950;6.988;2023-03-11T00:22:50;1.90;99.90
10692;DHT22;5396;50.950;6.988;2023-03-11T00:25:17;1.90;99.90
10692;DHT22;5396;50.950;6.988;2023-03-11T00:27:43;1.90;99.90
10692;DHT22;5396;50.950;6.988;2023-03-11T00:30:10;1.90;99.90
10692;DHT22;5396;50.950;6.988;2023-03-11T00:32:36;1.90;99.90
10692;DHT22;5396;50.950;6.988;2023-03-11T00:35:02;1.90;99.90
10692;DHT22;5396;50.950;6.988;2023-03-11T00:37:28;1.90;99.90
10692;DHT22;5396;50.950;6.988;2023-03-11T00:39:53;1.80;99.90
10692;DHT22;5396;50.950;6.988;2023-03-11T00:42:19;1.70;99.90
10692;DHT22;5396;50.950;6.988;2023-03-11T00:44:45;1.80;99.90
10692;DHT22;5396;50.950;6.988;2023-03-11T00:47:11;1.80;99.90
10692;DHT22;5396;50.950;6.988;2023-03-11T00:49:37;1.80;99.90
10692;DHT22;5396;50.950;6.988;2023-03-11T00:52:03;1.80;99.90
10692;DHT22;5396;50.950;6.988;2023-03-11T00:54:28;1.90;99.90
10692;DHT22;5396;50.950;6.988;2023-03-11T00:56:54;1.90;99.90
10692;DHT22;5396;50.950;6.988;2023-03-11T00:59:20;1.90;99.90
10692;DHT22;5396;50.950;6.988;2023-03-11T01:01:45;1.90;99.90
10692;DHT22;5396;50.950;6.988;2023-03-11T01:04:11;1.90;99.90
10692;DHT22;5396;50.950;6.988;2023-03-11T01:06:36;1.80;99.90
10692;DHT22;5396;50.950;6.988;2023-03-11T01:09:02;1.80;99.90
10692;DHT22;5396;50.950;6.988;2023-03-11T01:11:29;1.80;99.90
10692;DHT22;5396;50.950;6.988;2023-03-11T01:13:55;1.80;99.90
10692;DHT22;5396;50.950;6.988;2023-03-11T01:16:21;1.80;99.90
10692;DHT22;5396;50.950;6.988;2023-03-11T01:18:46;1.80;99.90
10692;DHT22;5396;50.950;6.988;2023-03-11T01:21:12;1.80;99.90
10692;DHT22;5396;50.950;6.988;2023-03-11T01:23:39;1.80;99.90
10692;DHT22;5396;50.950;6.988;2023-03-11T01:26:04;1.80;99.90
10692;DHT22;5396;50.950;6.988;2023-03-11T01:28:30;1.90;99.90
10692;DHT22;5396;50.950;6.988;2023-03-11T01:30:56;1.90;99.90
10692;DHT22;5396;50.950;6.988;2023-03-11T01:33:21;1.90;99.90
10692;DHT22;5396;50.950;6.988;2023-03-11T01:35:47;1.90;99.90
10692;DHT22;5396;50.950;6.988;2023-03-11T01:38:14;1.90;99.90
10692;DHT22;5396;50.950;6.988;2023-03-11T01:40:45;1.90;99.90
10692;DHT22;5396;50.950;6.988;2023-03-11T01:43:35;1.90;99.90
10692;DHT22;5396;50.950;6.988;2023-03-11T01:48:35;1.90;99.90
10692;DHT22;5396;50.950;6.988;2023-03-11T01:51:04;1.90;99.90
10692;DHT22;5396;50.950;6.988;2023-03-11T01:53:31;1.90;99.90
10692;DHT22;5396;50.950;6.988;2023-03-11T01:55:57;1.90;99.90
10692;DHT22;5396;50.950;6.988;2023-03-11T01:58:24;1.90;99.90
10692;DHT22;5396;50.950;6.988;2023-03-11T02:00:51;1.90;99.90
10692;DHT22;5396;50.950;6.988;2023-03-11T02:03:22;1.90;99.90
10692;DHT22;5396;50.950;6.988;2023-03-11T02:05:49;1.80;99.90
10692;DHT22;5396;50.950;6.988;2023-03-11T02:08:16;1.80;99.90
10692;DHT22;5396;50.950;6.988;2023-03-11T02:10:43;1.80;99.90
10692;DHT22;5396;50.950;6.988;2023-03-11T02:13:09;1.80;99.90
10692;DHT22;5396;50.950;6.988;2023-03-11T02:15:35;1.90;99.90
10692;DHT22;5396;50.950;6.988;2023-03-11T02:18:04;1.90;99.90
10692;DHT22;5396;50.950;6.988;2023-03-11T02:20:53;1.90;99.90
10692;DHT22;5396;50.950;6.988;2023-03-11T02:23:25;1.90;99.90
10692;DHT22;5396;50.950;6.988;2023-03-11T02:28:43;1.90;99.90
10692;DHT22;5396;50.950;6.988;2023-03-11T02:31:10;1.90;99.90
10692;DHT22;5396;50.950;6.988;2023-03-11T02:33:36;1.90;99.90
10692;DHT22;5396;50.950;6.988;2023-03-11T02:36:02;1.80;99.90
10692;DHT22;5396;50.950;6.988;2023-03-11T02:38:28;1.80;99.90
10692;DHT22;5396;50.950;6.988;2023-03-11T02:43:42;1.70;99.90
10692;DHT22;5396;50.950;6.988;2023-03-11T02:46:10;1.70;99.90
10692;DHT22;5396;50.950;6.988;2023-03-11T02:48:37;1.70;99.90
10692;DHT22;5396;50.950;6.988;2023-03-11T02:51:04;1.70;99.90
10692;DHT22;5396;50.950;6.988;2023-03-11T02:53:34;1.70;99.90
10692;DHT22;5396;50.950;6.988;2023-03-11T02:56:01;1.70;99.90
10692;DHT22;5396;50.950;6.988;2023-03-11T02:58:27;1.70;99.90
10692;DHT22;5396;50.950;6.988;2023-03-11T03:00:53;1.70;99.90
10692;DHT22;5396;50.950;6.988;2023-03-11T03:03:18;1.70;99.90
10692;DHT22;5396;50.950;6.988;2023-03-11T03:05:44;1.60;99.90
10692;DHT22;5396;50.950;6.988;2023-03-11T03:08:10;1.60;99.90
10692;DHT22;5396;50.950;6.988;2023-03-11T03:10:36;1.60;99.90
10692;DHT22;5396;50.950;6.988;2023-03-11T03:13:01;1.50;99.90
10692;DHT22;5396;50.950;6.988;2023-03-11T03:15:27;1.50;99.90
10692;DHT22;5396;50.950;6.988;2023-03-11T03:17:53;1.40;99.90
10692;DHT22;5396;50.950;6.988;2023-03-11T03:20:18;1.40;99.90
10692;DHT22;5396;50.950;6.988;2023-03-11T03:22:47;1.40;99.90
10692;DHT22;5396;50.950;6.988;2023-03-11T03:25:12;1.40;99.90
10692;DHT22;5396;50.950;6.988;2023-03-11T03:27:38;1.30;99.90
10692;DHT22;5396;50.950;6.988;2023-03-11T03:30:05;1.30;99.90
10692;DHT22;5396;50.950;6.988;2023-03-11T03:32:31;1.30;99.90
10692;DHT22;5396;50.950;6.988;2023-03-11T03:34:56;1.30;99.90
10692;DHT22;5396;50.950;6.988;2023-03-11T03:37:25;1.20;99.90
10692;DHT22;5396;50.950;6.988;2023-03-11T03:39:50;1.30;99.90
10692;DHT22;5396;50.950;6.988;2023-03-11T03:42:16;1.20;99.90
10692;DHT22;5396;50.950;6.988;2023-03-11T03:44:42;1.20;99.90
10692;DHT22;5396;50.950;6.988;2023-03-11T03:47:07;1.20;99.90
10692;DHT22;5396;50.950;6.988;2023-03-11T03:49:33;1.20;99.90
10692;DHT22;5396;50.950;6.988;2023-03-11T03:51:58;1.20;99.90
10692;DHT22;5396;50.950;6.988;2023-03-11T03:54:24;1.10;99.90
10692;DHT22;5396;50.950;6.988;2023-03-11T03:56:50;1.10;99.90
10692;DHT22;5396;50.950;6.988;2023-03-11T03:59:15;1.00;99.90
10692;DHT22;5396;50.950;6.988;2023-03-11T04:01:41;1.00;99.90
10692;DHT22;5396;50.950;6.988;2023-03-11T04:04:07;1.00;99.90
10692;DHT22;5396;50.950;6.988;2023-03-11T04:06:32;0.90;99.90
10692;DHT22;5396;50.950;6.988;2023-03-11T04:09:00;0.90;99.90
10692;DHT22;5396;50.950;6.988;2023-03-11T04:11:25;0.90;99.90
10692;DHT22;5396;50.950;6.988;2023-03-11T04:13:51;0.90;99.90
10692;DHT22;5396;50.950;6.988;2023-03-11T04:16:19;0.80;99.90
10692;DHT22;5396;50.950;6.988;2023-03-11T04:18:46;0.80;99.90
10692;DHT22;5396;50.950;6.988;2023-03-11T04:21:12;0.80;99.90
10692;DHT22;5396;50.950;6.988;2023-03-11T04:23:39;0.70;99.90
10692;DHT22;5396;50.950;6.988;2023-03-11T04:26:05;0.80;99.90
10692;DHT22;5396;50.950;6.988;2023-03-11T04:28:30;0.70;99.90
10692;DHT22;5396;50.950;6.988;2023-03-11T04:30:56;0.70;99.90
10692;DHT22;5396;50.950;6.988;2023-03-11T04:33:22;0.70;99.90
10692;DHT22;5396;50.950;6.988;2023-03-11T04:35:47;0.70;99.90
10692;DHT22;5396;50.950;6.988;2023-03-11T04:38:13;0.70;99.90
10692;DHT22;5396;50.950;6.988;2023-03-11T04:40:39;0.70;99.90
10692;DHT22;5396;50.950;6.988;2023-03-11T04:43:05;0.60;99.90
10692;DHT22;5396;50.950;6.988;2023-03-11T04:45:31;0.60;99.90
10692;DHT22;5396;50.950;6.988;2023-03-11T04:47:56;0.60;99.90
10692;DHT22;5396;50.950;6.988;2023-03-11T04:50:22;0.60;99.90
10692;DHT22;5396;50.950;6.988;2023-03-11T04:52:48;0.60;99.90
10692;DHT22;5396;50.950;6.988;2023-03-11T04:55:14;0.60;99.90
10692;DHT22;5396;50.950;6.988;2023-03-11T04:57:41;0.60;99.90
10692;DHT22;5396;50.950;6.988;2023-03-11T05:00:08;0.60;99.90
10692;DHT22;5396;50.950;6.988;2023-03-11T05:02:36;0.60;99.90
10692;DHT22;5396;50.950;6.988;2023-03-11T05:05:03;0.60;99.90
10692;DHT22;5396;50.950;6.988;2023-03-11T05:07:29;0.60;99.90
10692;DHT22;5396;50.950;6.988;2023-03-11T05:09:54;0.60;99.90
10692;DHT22;5396;50.950;6.988;2023-03-11T05:12:20;0.60;99.90
10692;DHT22;5396;50.950;6.988;2023-03-11T05:14:46;0.60;99.90
10692;DHT22;5396;50.950;6.988;2023-03-11T05:17:11;0.60;99.90
10692;DHT22;5396;50.950;6.988;2023-03-11T05:19:39;0.60;99.90
10692;DHT22;5396;50.950;6.988;2023-03-11T05:22:05;0.60;99.90
10692;DHT22;5396;50.950;6.988;2023-03-11T05:24:31;0.60;99.90
10692;DHT22;5396;50.950;6.988;2023-03-11T05:26:57;0.60;99.90
10692;DHT22;5396;50.950;6.988;2023-03-11T05:29:24;0.60;99.90
10692;DHT22;5396;50.950;6.988;2023-03-11T05:31:50;0.60;99.90
10692;DHT22;5396;50.950;6.988;2023-03-11T05:34:16;0.60;99.90
10692;DHT22;5396;50.950;6.988;2023-03-11T05:36:42;0.60;99.90
10692;DHT22;5396;50.950;6.988;2023-03-11T05:39:08;0.60;99.90
10692;DHT22;5396;50.950;6.988;2023-03-11T05:41:34;0.60;99.90
10692;DHT22;5396;50.950;6.988;2023-03-11T05:43:59;0.60;99.90
10692;DHT22;5396;50.950;6.988;2023-03-11T05:46:25;0.60;99.90
10692;DHT22;5396;50.950;6.988;2023-03-11T05:48:51;0.60;99.90
10692;DHT22;5396;50.950;6.988;2023-03-11T05:51:16;0.60;99.90
10692;DHT22;5396;50.950;6.988;2023-03-11T05:53:43;0.50;99.90
10692;DHT22;5396;50.950;6.988;2023-03-11T05:56:20;0.50;99.90
10692;DHT22;5396;50.950;6.988;2023-03-11T05:58:46;0.50;99.90
10692;DHT22;5396;50.950;6.988;2023-03-11T06:01:15;0.60;99.90
10692;DHT22;5396;50.950;6.988;2023-03-11T06:03:41;0.60;99.90
10692;DHT22;5396;50.950;6.988;2023-03-11T06:06:10;0.60;99.90
10692;DHT22;5396;50.950;6.988;2023-03-11T06:08:36;0.60;99.90
10692;DHT22;5396;50.950;6.988;2023-03-11T06:11:04;0.70;99.90
10692;DHT22;5396;50.950;6.988;2023-03-11T06:13:30;0.70;99.90
10692;DHT22;5396;50.950;6.988;2023-03-11T06:15:55;0.70;99.90
10692;DHT22;5396;50.950;6.988;2023-03-11T06:18:21;0.70;99.90
10692;DHT22;5396;50.950;6.988;2023-03-11T06:20:47;0.70;99.90
10692;DHT22;5396;50.950;6.988;2023-03-11T06:23:12;0.70;99.90
10692;DHT22;5396;50.950;6.988;2023-03-11T06:25:38;0.70;99.90
10692;DHT22;5396;50.950;6.988;2023-03-11T06:28:04;0.70;99.90
10692;DHT22;5396;50.950;6.988;2023-03-11T06:30:29;0.80;99.90
10692;DHT22;5396;50.950;6.988;2023-03-11T06:32:55;0.80;99.90
10692;DHT22;5396;50.950;6.988;2023-03-11T06:35:20;0.90;99.90
10692;DHT22;5396;50.950;6.988;2023-03-11T06:37:46;1.00;99.90
10692;DHT22;5396;50.950;6.988;2023-03-11T06:40:12;1.00;99.90
10692;DHT22;5396;50.950;6.988;2023-03-11T06:42:38;1.10;99.90
10692;DHT22;5396;50.950;6.988;2023-03-11T06:45:04;1.10;99.90
10692;DHT22;5396;50.950;6.988;2023-03-11T06:47:30;1.20;99.90
10692;DHT22;5396;50.950;6.988;2023-03-11T06:49:56;1.20;99.90
10692;DHT22;5396;50.950;6.988;2023-03-11T06:52:22;1.20;99.90
10692;DHT22;5396;50.950;6.988;2023-03-11T06:54:47;1.30;99.90
10692;DHT22;5396;50.950;6.988;2023-03-11T06:57:13;1.30;99.90
10692;DHT22;5396;50.950;6.988;2023-03-11T06:59:38;1.30;99.90
10692;DHT22;5396;50.950;6.988;2023-03-11T07:02:05;1.30;99.90
10692;DHT22;5396;50.950;6.988;2023-03-11T07:04:31;1.20;99.90
10692;DHT22;5396;50.950;6.988;2023-03-11T07:06:57;1.20;99.90
10692;DHT22;5396;50.950;6.988;2023-03-11T07:09:23;1.20;99.90
10692;DHT22;5396;50.950;6.988;2023-03-11T07:11:50;1.20;99.90
10692;DHT22;5396;50.950;6.988;2023-03-11T07:14:16;1.20;99.90
10692;DHT22;5396;50.950;6.988;2023-03-11T07:16:42;1.30;99.90
10692;DHT22;5396;50.950;6.988;2023-03-11T07:19:08;1.30;99.90
10692;DHT22;5396;50.950;6.988;2023-03-11T07:21:34;1.40;99.90
10692;DHT22;5396;50.950;6.988;2023-03-11T07:24:01;1.40;99.90
10692;DHT22;5396;50.950;6.988;2023-03-11T07:26:28;1.40;99.90
10692;DHT22;5396;50.950;6.988;2023-03-11T07:28:55;1.40;99.90
10692;DHT22;5396;50.950;6.988;2023-03-11T07:31:24;1.40;99.90
10692;DHT22;5396;50.950;6.988;2023-03-11T07:33:50;1.40;99.90
10692;DHT22;5396;50.950;6.988;2023-03-11T07:36:18;1.40;99.90
10692;DHT22;5396;50.950;6.988;2023-03-11T07:38:44;1.40;99.90
10692;DHT22;5396;50.950;6.988;2023-03-11T07:41:11;1.40;99.90
10692;DHT22;5396;50.950;6.988;2023-03-11T07:43:38;1.40;99.90
10692;DHT22;5396;50.950;6.988;2023-03-11T07:48:35;1.50;99.90
10692;DHT22;5396;50.950;6.988;2023-03-11T07:51:06;1.50;99.90
10692;DHT22;5396;50.950;6.988;2023-03-11T07:53:32;1.50;99.90
10692;DHT22;5396;50.950;6.988;2023-03-11T07:55:58;1.60;99.90
10692;DHT22;5396;50.950;6.988;2023-03-11T07:58:25;1.70;99.90
10692;DHT22;5396;50.950;6.988;2023-03-11T08:00:51;1.70;99.90
10692;DHT22;5396;50.950;6.988;2023-03-11T08:03:17;1.80;99.90
10692;DHT22;5396;50.950;6.988;2023-03-11T08:05:43;1.90;99.90
10692;DHT22;5396;50.950;6.988;2023-03-11T08:08:08;1.80;99.90
10692;DHT22;5396;50.950;6.988;2023-03-11T08:10:38;1.90;99.90
10692;DHT22;5396;50.950;6.988;2023-03-11T08:13:03;1.90;99.90
10692;DHT22;5396;50.950;6.988;2023-03-11T08:15:29;2.00;99.90
10692;DHT22;5396;50.950;6.988;2023-03-11T08:17:55;2.00;99.90
10692;DHT22;5396;50.950;6.988;2023-03-11T08:20:21;2.10;99.90
10692;DHT22;5396;50.950;6.988;2023-03-11T08:22:46;2.10;99.90
10692;DHT22;5396;50.950;6.988;2023-03-11T08:25:12;2.20;99.90
10692;DHT22;5396;50.950;6.988;2023-03-11T08:27:38;2.20;99.90
10692;DHT22;5396;50.950;6.988;2023-03-11T08:30:05;2.20;99.90
10692;DHT22;5396;50.950;6.988;2023-03-11T08:32:31;2.20;99.90
10692;DHT22;5396;50.950;6.988;2023-03-11T08:34:57;2.30;99.90
10692;DHT22;5396;50.950;6.988;2023-03-11T08:37:24;2.30;99.90
10692;DHT22;5396;50.950;6.988;2023-03-11T08:39:49;2.40;99.90
10692;DHT22;5396;50.950;6.988;2023-03-11T08:42:16;2.40;99.90
10692;DHT22;5396;50.950;6.988;2023-03-11T08:44:42;2.50;99.90
10692;DHT22;5396;50.950;6.988;2023-03-11T08:47:08;2.50;99.90
10692;DHT22;5396;50.950;6.988;2023-03-11T08:49:34;2.60;99.90
10692;DHT22;5396;50.950;6.988;2023-03-11T08:52:01;2.60;99.90
10692;DHT22;5396;50.950;6.988;2023-03-11T08:54:27;2.70;99.90
10692;DHT22;5396;50.950;6.988;2023-03-11T08:56:53;2.70;99.90
10692;DHT22;5396;50.950;6.988;2023-03-11T08:59:19;2.60;99.90
10692;DHT22;5396;50.950;6.988;2023-03-11T09:01:44;2.80;99.90
10692;DHT22;5396;50.950;6.988;2023-03-11T09:04:11;2.80;99.90
10692;DHT22;5396;50.950;6.988;2023-03-11T09:06:41;2.90;99.90
10692;DHT22;5396;50.950;6.988;2023-03-11T09:09:07;2.90;99.90
10692;DHT22;5396;50.950;6.988;2023-03-11T09:11:33;3.00;99.90
10692;DHT22;5396;50.950;6.988;2023-03-11T09:14:02;3.00;99.90
10692;DHT22;5396;50.950;6.988;2023-03-11T09:16:27;3.10;99.90
10692;DHT22;5396;50.950;6.988;2023-03-11T09:18:53;3.20;99.90
10692;DHT22;5396;50.950;6.988;2023-03-11T09:21:19;3.20;99.90
10692;DHT22;5396;50.950;6.988;2023-03-11T09:23:45;3.30;99.90
10692;DHT22;5396;50.950;6.988;2023-03-11T09:26:11;3.30;99.90
10692;DHT22;5396;50.950;6.988;2023-03-11T09:28:37;3.50;99.90
10692;DHT22;5396;50.950;6.988;2023-03-11T09:31:03;3.60;99.90
10692;DHT22;5396;50.950;6.988;2023-03-11T09:33:29;3.70;99.90
10692;DHT22;5396;50.950;6.988;2023-03-11T09:35:57;3.80;99.90
10692;DHT22;5396;50.950;6.988;2023-03-11T09:38:22;4.00;99.90
10692;DHT22;5396;50.950;6.988;2023-03-11T09:40:59;4.10;99.90
10692;DHT22;5396;50.950;6.988;2023-03-11T09:52:15;4.30;99.90
10692;DHT22;5396;50.950;6.988;2023-03-11T09:54:52;4.50;99.90
10692;DHT22;5396;50.950;6.988;2023-03-11T09:57:24;4.40;99.90
10692;DHT22;5396;50.950;6.988;2023-03-11T09:59:51;4.40;99.90
10692;DHT22;5396;50.950;6.988;2023-03-11T10:02:18;4.40;99.90
10692;DHT22;5396;50.950;6.988;2023-03-11T10:05:15;4.50;99.90
10692;DHT22;5396;50.950;6.988;2023-03-11T10:07:51;4.60;99.90
10692;DHT22;5396;50.950;6.988;2023-03-11T10:10:18;4.50;99.90
10692;DHT22;5396;50.950;6.988;2023-03-11T10:13:05;4.60;99.90
10692;DHT22;5396;50.950;6.988;2023-03-11T10:24:00;4.50;99.90
10692;DHT22;5396;50.950;6.988;2023-03-11T10:26:35;4.50;99.90
10692;DHT22;5396;50.950;6.988;2023-03-11T10:29:10;4.70;99.90
10692;DHT22;5396;50.950;6.988;2023-03-11T10:31:45;4.90;99.90
10692;DHT22;5396;50.950;6.988;2023-03-11T10:34:21;5.00;99.90
10692;DHT22;5396;50.950;6.988;2023-03-11T10:39:22;5.40;99.90
10692;DHT22;5396;50.950;6.988;2023-03-11T10:41:58;5.50;99.90
10692;DHT22;5396;50.950;6.988;2023-03-11T10:44:34;5.60;99.90
10692;DHT22;5396;50.950;6.988;2023-03-11T10:47:01;5.60;99.90
10692;DHT22;5396;50.950;6.988;2023-03-11T10:49:26;5.50;99.90
10692;DHT22;5396;50.950;6.988;2023-03-11T10:51:53;5.60;99.90
10692;DHT22;5396;50.950;6.988;2023-03-11T10:57:00;5.70;99.90
10692;DHT22;5396;50.950;6.988;2023-03-11T10:59:37;5.80;99.90
10692;DHT22;5396;50.950;6.988;2023-03-11T11:02:38;5.90;99.90
10692;DHT22;5396;50.950;6.988;2023-03-11T11:07:50;6.20;99.90
10692;DHT22;5396;50.950;6.988;2023-03-11T11:10:26;6.30;99.90
10692;DHT22;5396;50.950;6.988;2023-03-11T11:13:23;6.20;99.90
10692;DHT22;5396;50.950;6.988;2023-03-11T11:20:58;6.60;99.90
10692;DHT22;5396;50.950;6.988;2023-03-11T11:23:38;6.50;99.90
10692;DHT22;5396;50.950;6.988;2023-03-11T11:26:17;6.60;99.90
10692;DHT22;5396;50.950;6.988;2023-03-11T11:28:43;6.70;99.90
10692;DHT22;5396;50.950;6.988;2023-03-11T11:31:22;6.80;99.90
10692;DHT22;5396;50.950;6.988;2023-03-11T11:33:55;6.80;99.90
10692;DHT22;5396;50.950;6.988;2023-03-11T11:36:30;6.80;99.90
10692;DHT22;5396;50.950;6.988;2023-03-11T11:38:58;6.80;99.90
10692;DHT22;5396;50.950;6.988;2023-03-11T11:41:28;6.80;99.90
10692;DHT22;5396;50.950;6.988;2023-03-11T11:43:58;7.00;99.90
10692;DHT22;5396;50.950;6.988;2023-03-11T11:46:43;7.00;99.90
10692;DHT22;5396;50.950;6.988;2023-03-11T11:49:23;7.00;99.90
10692;DHT22;5396;50.950;6.988;2023-03-11T11:52:05;7.10;99.90
10692;DHT22;5396;50.950;6.988;2023-03-11T11:54:40;7.00;99.90
10692;DHT22;5396;50.950;6.988;2023-03-11T11:57:15;6.90;99.90
10692;DHT22;5396;50.950;6.988;2023-03-11T11:59:42;6.80;99.90
10692;DHT22;5396;50.950;6.988;2023-03-11T12:05:15;6.80;99.90
10692;DHT22;5396;50.950;6.988;2023-03-11T12:18:34;6.50;99.90
10692;DHT22;5396;50.950;6.988;2023-03-11T12:20:59;6.60;99.90
10692;DHT22;5396;50.950;6.988;2023-03-11T12:26:21;7.00;99.90
10692;DHT22;5396;50.950;6.988;2023-03-11T12:28:55;6.60;99.90
10692;DHT22;5396;50.950;6.988;2023-03-11T12:31:27;6.40;99.90
10692;DHT22;5396;50.950;6.988;2023-03-11T12:33:58;6.10;99.90
10692;DHT22;5396;50.950;6.988;2023-03-11T12:36:38;6.00;99.90
10692;DHT22;5396;50.950;6.988;2023-03-11T12:39:06;5.90;99.90
10692;DHT22;5396;50.950;6.988;2023-03-11T12:41:38;5.90;99.90
10692;DHT22;5396;50.950;6.988;2023-03-11T12:44:28;5.90;99.90
10692;DHT22;5396;50.950;6.988;2023-03-11T12:46:58;6.00;99.90
10692;DHT22;5396;50.950;6.988;2023-03-11T12:49:28;6.10;99.90
10692;DHT22;5396;50.950;6.988;2023-03-11T12:54:37;6.30;99.90
10692;DHT22;5396;50.950;6.988;2023-03-11T12:59:56;6.80;99.90
10692;DHT22;5396;50.950;6.988;2023-03-11T13:05:44;7.20;99.90
10692;DHT22;5396;50.950;6.988;2023-03-11T13:08:17;7.20;99.90
10692;DHT22;5396;50.950;6.988;2023-03-11T13:10:50;7.30;99.90
10692;DHT22;5396;50.950;6.988;2023-03-11T13:13:28;7.30;99.90
10692;DHT22;5396;50.950;6.988;2023-03-11T13:15:56;7.30;99.90
10692;DHT22;5396;50.950;6.988;2023-03-11T13:18:29;6.90;99.90
10692;DHT22;5396;50.950;6.988;2023-03-11T13:21:01;6.90;99.90
10692;DHT22;5396;50.950;6.988;2023-03-11T13:23:37;6.80;99.90
10692;DHT22;5396;50.950;6.988;2023-03-11T13:39:27;7.10;99.90
10692;DHT22;5396;50.950;6.988;2023-03-11T13:41:56;7.20;99.90
10692;DHT22;5396;50.950;6.988;2023-03-11T13:44:30;7.30;99.90
10692;DHT22;5396;50.950;6.988;2023-03-11T13:47:11;7.30;99.90
10692;DHT22;5396;50.950;6.988;2023-03-11T13:50:09;7.80;99.90
10692;DHT22;5396;50.950;6.988;2023-03-11T13:52:45;9.00;99.90
10692;DHT22;5396;50.950;6.988;2023-03-11T13:55:22;10.50;99.90
10692;DHT22;5396;50.950;6.988;2023-03-11T13:57:56;11.70;99.90
10692;DHT22;5396;50.950;6.988;2023-03-11T14:00:27;11.70;99.90
10692;DHT22;5396;50.950;6.988;2023-03-11T14:02:55;11.30;99.90
10692;DHT22;5396;50.950;6.988;2023-03-11T14:05:25;12.20;99.90
10692;DHT22;5396;50.950;6.988;2023-03-11T14:07:52;14.20;99.90
10692;DHT22;5396;50.950;6.988;2023-03-11T14:12:46;15.90;99.90
10692;DHT22;5396;50.950;6.988;2023-03-11T14:15:16;16.30;99.90
10692;DHT22;5396;50.950;6.988;2023-03-11T14:17:43;16.70;99.90
10692;DHT22;5396;50.950;6.988;2023-03-11T14:20:17;16.60;99.90
10692;DHT22;5396;50.950;6.988;2023-03-11T14:22:46;17.60;99.90
10692;DHT22;5396;50.950;6.988;2023-03-11T14:25:21;17.80;99.90
10692;DHT22;5396;50.950;6.988;2023-03-11T14:28:01;17.80;99.90
10692;DHT22;5396;50.950;6.988;2023-03-11T14:30:30;17.20;99.90
10692;DHT22;5396;50.950;6.988;2023-03-11T14:33:30;18.10;99.90
10692;DHT22;5396;50.950;6.988;2023-03-11T14:35:57;17.90;99.90
10692;DHT22;5396;50.950;6.988;2023-03-11T14:38:25;17.70;99.90
10692;DHT22;5396;50.950;6.988;2023-03-11T14:40:57;16.20;99.90
10692;DHT22;5396;50.950;6.988;2023-03-11T14:43:26;15.50;99.90
10692;DHT22;5396;50.950;6.988;2023-03-11T14:45:53;14.80;99.90
10692;DHT22;5396;50.950;6.988;2023-03-11T14:48:24;14.80;99.90
10692;DHT22;5396;50.950;6.988;2023-03-11T14:50:51;15.20;99.90
10692;DHT22;5396;50.950;6.988;2023-03-11T14:53:24;15.70;99.90
10692;DHT22;5396;50.950;6.988;2023-03-11T14:55:56;15.90;99.90
10692;DHT22;5396;50.950;6.988;2023-03-11T14:58:39;15.00;99.90
10692;DHT22;5396;50.950;6.988;2023-03-11T15:01:25;14.10;99.90
10692;DHT22;5396;50.950;6.988;2023-03-11T15:03:55;13.80;99.90
10692;DHT22;5396;50.950;6.988;2023-03-11T15:06:27;14.00;99.90
10692;DHT22;5396;50.950;6.988;2023-03-11T15:09:06;13.70;99.90
10692;DHT22;5396;50.950;6.988;2023-03-11T15:14:47;11.90;99.90
10692;DHT22;5396;50.950;6.988;2023-03-11T15:19:46;9.50;99.90
10692;DHT22;5396;50.950;6.988;2023-03-11T15:22:54;8.50;99.90
10692;DHT22;5396;50.950;6.988;2023-03-11T15:25:26;7.90;99.90
10692;DHT22;5396;50.950;6.988;2023-03-11T15:27:52;7.40;99.90
10692;DHT22;5396;50.950;6.988;2023-03-11T15:30:28;7.10;99.90
10692;DHT22;5396;50.950;6.988;2023-03-11T15:32:54;6.80;99.90
10692;DHT22;5396;50.950;6.988;2023-03-11T15:35:29;6.70;99.90
10692;DHT22;5396;50.950;6.988;2023-03-11T15:41:00;6.70;99.90
10692;DHT22;5396;50.950;6.988;2023-03-11T15:43:33;7.20;99.90
10692;DHT22;5396;50.950;6.988;2023-03-11T15:46:08;7.90;99.90
10692;DHT22;5396;50.950;6.988;2023-03-11T15:48:34;8.70;99.90
10692;DHT22;5396;50.950;6.988;2023-03-11T15:51:00;9.10;99.90
10692;DHT22;5396;50.950;6.988;2023-03-11T15:53:27;9.00;99.90
10692;DHT22;5396;50.950;6.988;2023-03-11T15:55:54;9.00;99.90
10692;DHT22;5396;50.950;6.988;2023-03-11T15:58:21;9.30;99.90
10692;DHT22;5396;50.950;6.988;2023-03-11T16:00:52;9.50;99.90
10692;DHT22;5396;50.950;6.988;2023-03-11T16:03:18;9.70;99.90
10692;DHT22;5396;50.950;6.988;2023-03-11T16:05:45;9.90;99.90
10692;DHT22;5396;50.950;6.988;2023-03-11T16:08:11;9.40;99.90
10692;DHT22;5396;50.950;6.988;2023-03-11T16:10:37;9.30;99.90
10692;DHT22;5396;50.950;6.988;2023-03-11T16:13:03;9.60;99.90
10692;DHT22;5396;50.950;6.988;2023-03-11T16:15:34;9.80;99.90
10692;DHT22;5396;50.950;6.988;2023-03-11T16:18:03;9.90;99.90
10692;DHT22;5396;50.950;6.988;2023-03-11T16:20:37;9.40;99.90
10692;DHT22;5396;50.950;6.988;2023-03-11T16:23:06;9.00;99.90
10692;DHT22;5396;50.950;6.988;2023-03-11T16:25:37;9.40;99.90
10692;DHT22;5396;50.950;6.988;2023-03-11T16:28:04;9.70;99.90
10692;DHT22;5396;50.950;6.988;2023-03-11T16:30:31;10.30;99.90
10692;DHT22;5396;50.950;6.988;2023-03-11T16:32:57;11.00;99.90
10692;DHT22;5396;50.950;6.988;2023-03-11T16:35:23;11.10;99.90
10692;DHT22;5396;50.950;6.988;2023-03-11T16:37:49;11.10;99.90
10692;DHT22;5396;50.950;6.988;2023-03-11T16:40:20;11.40;99.90
10692;DHT22;5396;50.950;6.988;2023-03-11T16:42:46;11.70;99.90
10692;DHT22;5396;50.950;6.988;2023-03-11T16:45:13;12.10;99.90
10692;DHT22;5396;50.950;6.988;2023-03-11T16:47:39;12.40;99.90
10692;DHT22;5396;50.950;6.988;2023-03-11T16:50:06;12.20;99.90
10692;DHT22;5396;50.950;6.988;2023-03-11T16:52:32;11.40;99.90
10692;DHT22;5396;50.950;6.988;2023-03-11T16:54:57;10.30;99.90
10692;DHT22;5396;50.950;6.988;2023-03-11T16:57:23;9.10;99.90
10692;DHT22;5396;50.950;6.988;2023-03-11T16:59:48;8.40;99.90
10692;DHT22;5396;50.950;6.988;2023-03-11T17:02:14;7.70;99.90
10692;DHT22;5396;50.950;6.988;2023-03-11T17:04:40;7.20;99.90
10692;DHT22;5396;50.950;6.988;2023-03-11T17:07:07;6.80;99.90
10692;DHT22;5396;50.950;6.988;2023-03-11T17:09:34;6.50;99.90
10692;DHT22;5396;50.950;6.988;2023-03-11T17:12:00;6.20;99.90
10692;DHT22;5396;50.950;6.988;2023-03-11T17:14:26;6.00;99.90
10692;DHT22;5396;50.950;6.988;2023-03-11T17:16:51;5.90;99.90
10692;DHT22;5396;50.950;6.988;2023-03-11T17:19:17;5.70;99.90
10692;DHT22;5396;50.950;6.988;2023-03-11T17:21:43;5.50;99.90
10692;DHT22;5396;50.950;6.988;2023-03-11T17:24:11;5.30;99.90
10692;DHT22;5396;50.950;6.988;2023-03-11T17:26:37;5.20;99.90
10692;DHT22;5396;50.950;6.988;2023-03-11T17:29:03;5.10;99.90
10692;DHT22;5396;50.950;6.988;2023-03-11T17:31:29;4.90;99.90
10692;DHT22;5396;50.950;6.988;2023-03-11T17:33:55;4.80;99.90
10692;DHT22;5396;50.950;6.988;2023-03-11T17:36:21;4.60;99.90
10692;DHT22;5396;50.950;6.988;2023-03-11T17:38:49;4.50;99.90